createdAt,value
2019-02-28T00:00:06.564Z,6.75
2019-02-28T00:01:03.816Z,6.64
2019-02-28T00:02:03.805Z,6.71
2019-02-28T00:03:03.791Z,6.63
2019-02-28T00:04:03.779Z,6.63
2019-02-28T00:05:06.047Z,6.68
2019-02-28T00:06:03.752Z,6.63
2019-02-28T00:07:03.737Z,6.58
2019-02-28T00:08:03.725Z,6.55
2019-02-28T00:09:03.712Z,6.65
2019-02-28T00:10:03.700Z,6.65
2019-02-28T00:11:05.124Z,6.61
2019-02-28T00:12:03.672Z,6.63
2019-02-28T00:13:03.663Z,6.63
2019-02-28T00:14:03.647Z,6.51
2019-02-28T00:15:03.635Z,6.57
2019-02-28T00:16:04.018Z,6.57
2019-02-28T00:17:06.247Z,6.64
2019-02-28T00:18:03.830Z,6.68
2019-02-28T00:19:03.584Z,6.60
2019-02-28T00:20:03.570Z,6.64
2019-02-28T00:21:06.991Z,6.64
2019-02-28T00:22:03.545Z,6.71
2019-02-28T00:23:03.530Z,6.73
2019-02-28T00:24:03.515Z,6.72
2019-02-28T00:25:04.226Z,6.76
2019-02-28T00:26:03.495Z,6.69
2019-02-28T00:27:03.479Z,6.72
2019-02-28T00:28:03.461Z,6.69
2019-02-28T00:29:03.451Z,6.73
2019-02-28T00:30:06.019Z,6.69
2019-02-28T00:31:03.427Z,6.73
2019-02-28T00:32:03.413Z,6.65
2019-02-28T00:33:03.398Z,6.63
2019-02-28T00:34:05.454Z,6.61
2019-02-28T00:35:03.371Z,6.54
2019-02-28T00:36:03.358Z,6.51
2019-02-28T00:37:03.348Z,6.53
2019-02-28T00:38:03.331Z,6.38
2019-02-28T00:39:04.057Z,6.46
2019-02-28T00:40:06.633Z,6.48
2019-02-28T00:41:03.293Z,6.40
2019-02-28T00:42:03.280Z,6.46
2019-02-28T00:43:03.266Z,6.50
2019-02-28T00:44:04.449Z,6.48
2019-02-28T00:45:03.783Z,6.40
2019-02-28T00:46:03.225Z,6.35
2019-02-28T00:47:03.213Z,6.35
2019-02-28T00:48:03.199Z,6.39
2019-02-28T00:49:03.187Z,6.45
2019-02-28T00:50:03.174Z,6.38
2019-02-28T00:51:03.161Z,6.50
2019-02-28T00:52:03.149Z,6.33
2019-02-28T00:53:05.765Z,6.35
2019-02-28T00:54:03.120Z,6.33
2019-02-28T00:55:03.105Z,6.32
2019-02-28T00:56:03.093Z,6.33
2019-02-28T00:57:03.082Z,6.42
2019-02-28T00:58:03.066Z,6.45
2019-02-28T00:59:03.059Z,6.38
2019-02-28T01:00:05.559Z,6.42
2019-02-28T01:01:03.025Z,6.40
2019-02-28T01:02:03.013Z,6.32
2019-02-28T01:03:03.001Z,6.32
2019-02-28T01:04:02.985Z,6.32
2019-02-28T01:05:04.819Z,6.25
2019-02-28T01:06:02.958Z,6.14
2019-02-28T01:07:02.946Z,6.17
2019-02-28T01:08:02.932Z,6.17
2019-02-28T01:09:02.919Z,6.17
2019-02-28T01:10:04.550Z,6.20
2019-02-28T01:11:02.893Z,6.05
2019-02-28T01:12:02.878Z,6.19
2019-02-28T01:13:02.871Z,6.08
2019-02-28T01:14:02.853Z,6.05
2019-02-28T01:15:02.838Z,6.14
2019-02-28T01:16:02.825Z,6.13
2019-02-28T01:17:02.810Z,6.10
2019-02-28T01:18:02.798Z,6.20
2019-02-28T01:19:02.784Z,6.38
2019-02-28T01:20:02.769Z,6.35
2019-02-28T01:21:02.757Z,6.43
2019-02-28T01:22:02.743Z,6.45
2019-02-28T01:23:02.729Z,6.43
2019-02-28T01:24:02.719Z,6.38
2019-02-28T01:25:02.701Z,6.35
2019-02-28T01:26:02.690Z,6.33
2019-02-28T01:27:02.677Z,6.38
2019-02-28T01:28:02.666Z,6.39
2019-02-28T01:29:02.769Z,6.27
2019-02-28T01:30:02.635Z,6.33
2019-02-28T01:31:02.622Z,6.38
2019-02-28T01:32:02.609Z,6.39
2019-02-28T01:33:02.594Z,6.27
2019-02-28T01:34:02.581Z,6.21
2019-02-28T01:35:05.891Z,6.14
2019-02-28T01:36:02.553Z,6.28
2019-02-28T01:37:02.539Z,6.17
2019-02-28T01:38:02.526Z,6.03
2019-02-28T01:39:02.513Z,6.02
2019-02-28T01:40:04.418Z,5.95
2019-02-28T01:41:02.486Z,5.93
2019-02-28T01:42:02.473Z,5.92
2019-02-28T01:43:02.459Z,5.93
2019-02-28T01:44:02.830Z,5.81
2019-02-28T01:45:02.433Z,5.80
2019-02-28T01:46:02.419Z,5.78
2019-02-28T01:47:02.405Z,5.84
2019-02-28T01:48:02.390Z,5.81
2019-02-28T01:49:02.378Z,5.87
2019-02-28T01:50:02.363Z,5.77
2019-02-28T01:51:02.352Z,5.70
2019-02-28T01:52:02.338Z,5.70
2019-02-28T01:53:02.322Z,5.74
2019-02-28T01:54:02.309Z,5.85
2019-02-28T01:55:02.297Z,5.78
2019-02-28T01:56:03.181Z,5.87
2019-02-28T01:57:02.267Z,5.81
2019-02-28T01:58:02.255Z,5.74
2019-02-28T01:59:02.240Z,5.95
2019-02-28T02:00:02.226Z,5.93
2019-02-28T02:01:02.216Z,6.02
2019-02-28T02:02:05.675Z,6.06
2019-02-28T02:03:02.191Z,6.08
2019-02-28T02:04:02.171Z,6.06
2019-02-28T02:05:02.157Z,6.03
2019-02-28T02:06:02.143Z,6.24
2019-02-28T02:07:02.132Z,6.19
2019-02-28T02:08:06.549Z,6.17
2019-02-28T02:09:02.106Z,6.19
2019-02-28T02:10:02.089Z,6.20
2019-02-28T02:11:02.076Z,6.21
2019-02-28T02:12:02.061Z,6.32
2019-02-28T02:13:03.137Z,6.38
2019-02-28T02:14:02.033Z,6.36
2019-02-28T02:15:02.023Z,6.28
2019-02-28T02:16:02.005Z,6.32
2019-02-28T02:17:02.025Z,6.38
2019-02-28T02:18:01.980Z,6.19
2019-02-28T02:19:01.966Z,6.16
2019-02-28T02:20:01.951Z,6.14
2019-02-28T02:21:01.938Z,6.24
2019-02-28T02:22:01.929Z,6.30
2019-02-28T02:23:01.911Z,6.32
2019-02-28T02:24:01.898Z,6.46
2019-02-28T02:25:03.062Z,6.46
2019-02-28T02:26:01.871Z,6.61
2019-02-28T02:27:01.856Z,6.69
2019-02-28T02:28:01.842Z,6.71
2019-02-28T02:29:01.981Z,6.71
2019-02-28T02:30:01.822Z,6.69
2019-02-28T02:31:01.817Z,6.60
2019-02-28T02:32:02.585Z,6.69
2019-02-28T02:33:01.775Z,6.68
2019-02-28T02:34:01.771Z,6.61
2019-02-28T02:35:08.145Z,6.58
2019-02-28T02:36:01.733Z,6.45
2019-02-28T02:37:01.724Z,6.38
2019-02-28T02:38:03.609Z,6.32
2019-02-28T02:39:01.692Z,6.27
2019-02-28T02:40:01.679Z,6.27
2019-02-28T02:41:01.668Z,6.25
2019-02-28T02:42:01.651Z,6.24
2019-02-28T02:43:01.637Z,6.25
2019-02-28T02:44:01.623Z,6.42
2019-02-28T02:45:05.172Z,6.40
2019-02-28T02:46:01.595Z,6.35
2019-02-28T02:47:01.584Z,6.33
2019-02-28T02:48:05.174Z,6.42
2019-02-28T02:49:01.554Z,6.42
2019-02-28T02:50:01.540Z,6.36
2019-02-28T02:51:01.529Z,6.43
2019-02-28T02:52:01.522Z,6.27
2019-02-28T02:53:05.413Z,6.27
2019-02-28T02:54:01.485Z,6.35
2019-02-28T02:55:01.476Z,6.28
2019-02-28T02:56:04.060Z,6.40
2019-02-28T02:57:01.445Z,6.46
2019-02-28T02:58:01.431Z,6.50
2019-02-28T02:59:02.356Z,6.48
2019-02-28T03:00:01.405Z,6.53
2019-02-28T03:01:01.401Z,6.55
2019-02-28T03:02:01.377Z,6.58
2019-02-28T03:03:01.364Z,6.55
2019-02-28T03:04:01.350Z,6.50
2019-02-28T03:05:01.335Z,6.42
2019-02-28T03:06:01.324Z,6.43
2019-02-28T03:07:01.309Z,6.43
2019-02-28T03:08:01.317Z,6.39
2019-02-28T03:09:01.280Z,6.33
2019-02-28T03:10:01.274Z,6.43
2019-02-28T03:11:01.255Z,6.38
2019-02-28T03:12:01.244Z,6.28
2019-02-28T03:13:04.705Z,6.30
2019-02-28T03:14:01.213Z,6.46
2019-02-28T03:15:01.201Z,6.38
2019-02-28T03:16:01.187Z,6.28
2019-02-28T03:17:01.174Z,6.40
2019-02-28T03:18:01.157Z,6.39
2019-02-28T03:19:01.150Z,6.48
2019-02-28T03:20:01.143Z,6.57
2019-02-28T03:21:01.120Z,6.71
2019-02-28T03:22:01.101Z,6.91
2019-02-28T03:23:03.171Z,6.90
2019-02-28T03:24:01.073Z,6.99
2019-02-28T03:25:01.060Z,6.96
2019-02-28T03:26:05.785Z,6.97
2019-02-28T03:27:01.034Z,7.00
2019-02-28T03:28:01.019Z,6.90
2019-02-28T03:29:07.487Z,6.83
2019-02-28T03:30:00.994Z,6.81
2019-02-28T03:31:11.989Z,6.69
2019-02-28T03:32:00.963Z,6.79
2019-02-28T03:33:00.949Z,6.91
2019-02-28T03:34:10.136Z,7.11
2019-02-28T03:35:00.941Z,7.16
2019-02-28T03:36:00.910Z,7.12
2019-02-28T03:37:00.910Z,7.05
2019-02-28T03:38:00.884Z,7.01
2019-02-28T03:39:00.864Z,6.87
2019-02-28T03:40:04.249Z,6.72
2019-02-28T03:41:00.838Z,6.65
2019-02-28T03:42:00.825Z,6.63
2019-02-28T03:43:05.538Z,6.68
2019-02-28T03:44:00.796Z,6.87
2019-02-28T03:45:00.783Z,7.05
2019-02-28T03:46:00.772Z,7.15
2019-02-28T03:47:00.757Z,7.27
2019-02-28T03:48:00.742Z,7.26
2019-02-28T03:49:00.727Z,7.27
2019-02-28T03:50:00.715Z,7.23
2019-02-28T03:51:00.702Z,7.19
2019-02-28T03:52:05.446Z,7.08
2019-02-28T03:53:00.673Z,6.94
2019-02-28T03:54:00.667Z,7.01
2019-02-28T03:55:03.257Z,6.86
2019-02-28T03:56:00.632Z,6.91
2019-02-28T03:57:00.619Z,6.89
2019-02-28T03:58:05.508Z,6.87
2019-02-28T03:59:00.592Z,6.87
2019-02-28T04:00:00.643Z,6.91
2019-02-28T04:01:00.562Z,6.86
2019-02-28T04:02:00.550Z,7.04
2019-02-28T04:03:00.538Z,6.97
2019-02-28T04:04:00.526Z,6.96
2019-02-28T04:05:00.508Z,6.99
2019-02-28T04:06:03.613Z,6.99
2019-02-28T04:07:00.487Z,6.96
2019-02-28T04:08:00.468Z,7.15
2019-02-28T04:09:06.995Z,7.14
2019-02-28T04:10:00.443Z,7.15
2019-02-28T04:11:00.429Z,7.12
2019-02-28T04:12:07.276Z,7.26
2019-02-28T04:13:00.452Z,7.08
2019-02-28T04:14:00.387Z,6.96
2019-02-28T04:15:00.436Z,7.08
2019-02-28T04:16:08.559Z,6.93
2019-02-28T04:17:00.347Z,6.91
2019-02-28T04:18:07.031Z,6.87
2019-02-28T04:19:00.321Z,6.82
2019-02-28T04:20:00.917Z,6.68
2019-02-28T04:21:00.300Z,6.71
2019-02-28T04:22:00.294Z,6.68
2019-02-28T04:23:00.440Z,6.76
2019-02-28T04:25:42.651Z,6.76
2019-02-28T04:26:42.635Z,6.68
2019-02-28T04:27:42.622Z,6.65
2019-02-28T04:28:42.608Z,6.65
2019-02-28T04:29:42.596Z,6.61
2019-02-28T04:30:43.707Z,6.65
2019-02-28T04:31:42.577Z,6.63
2019-02-28T04:32:42.557Z,6.69
2019-02-28T04:33:42.540Z,6.65
2019-02-28T04:34:45.713Z,6.87
2019-02-28T04:35:42.515Z,6.72
2019-02-28T04:36:42.503Z,6.90
2019-02-28T04:37:46.453Z,6.91
2019-02-28T04:38:42.473Z,6.94
2019-02-28T04:39:42.458Z,6.87
2019-02-28T04:40:42.448Z,6.82
2019-02-28T04:41:42.432Z,6.69
2019-02-28T04:42:42.428Z,6.89
2019-02-28T04:43:44.393Z,6.86
2019-02-28T04:44:42.390Z,7.01
2019-02-28T04:45:42.378Z,7.05
2019-02-28T04:46:42.362Z,7.04
2019-02-28T04:47:42.351Z,7.00
2019-02-28T04:48:42.338Z,7.09
2019-02-28T04:49:42.324Z,7.18
2019-02-28T04:50:42.308Z,7.14
2019-02-28T04:51:42.297Z,7.05
2019-02-28T04:52:46.712Z,7.05
2019-02-28T04:53:42.273Z,6.99
2019-02-28T04:54:42.256Z,6.87
2019-02-28T04:55:42.242Z,6.91
2019-02-28T04:56:45.532Z,6.82
2019-02-28T04:57:42.214Z,6.76
2019-02-28T04:58:42.201Z,6.75
2019-02-28T04:59:42.188Z,6.73
2019-02-28T05:00:42.176Z,6.72
2019-02-28T05:01:45.276Z,6.63
2019-02-28T05:02:42.149Z,6.75
2019-02-28T05:03:42.133Z,6.73
2019-02-28T05:04:42.121Z,6.68
2019-02-28T05:05:46.472Z,6.73
2019-02-28T05:06:42.093Z,6.93
2019-02-28T05:07:42.085Z,6.89
2019-02-28T05:08:42.069Z,6.91
2019-02-28T05:09:42.055Z,6.94
2019-02-28T05:10:42.037Z,6.86
2019-02-28T05:11:42.025Z,6.83
2019-02-28T05:12:42.011Z,6.71
2019-02-28T05:13:41.999Z,6.69
2019-02-28T05:14:41.984Z,6.63
2019-02-28T05:15:41.971Z,6.68
2019-02-28T05:16:46.858Z,6.73
2019-02-28T05:17:41.947Z,6.72
2019-02-28T05:18:41.931Z,6.71
2019-02-28T05:19:41.916Z,6.76
2019-02-28T05:20:44.988Z,6.76
2019-02-28T05:21:41.890Z,6.81
2019-02-28T05:22:41.878Z,6.69
2019-02-28T05:23:41.861Z,6.72
2019-02-28T05:24:42.603Z,6.81
2019-02-28T05:25:41.836Z,6.71
2019-02-28T05:26:41.823Z,6.63
2019-02-28T05:27:41.811Z,6.64
2019-02-28T05:28:41.802Z,6.72
2019-02-28T05:29:43.933Z,6.65
2019-02-28T05:30:41.767Z,6.63
2019-02-28T05:31:41.754Z,6.61
2019-02-28T05:32:41.741Z,6.65
2019-02-28T05:33:42.752Z,6.63
2019-02-28T05:34:41.714Z,6.60
2019-02-28T05:35:41.700Z,6.65
2019-02-28T05:36:41.685Z,6.63
2019-02-28T05:37:46.881Z,6.71
2019-02-28T05:38:41.659Z,6.71
2019-02-28T05:39:43.668Z,6.69
2019-02-28T05:40:41.631Z,6.58
2019-02-28T05:41:41.618Z,6.54
2019-02-28T05:42:41.604Z,6.63
2019-02-28T05:43:41.589Z,6.58
2019-02-28T05:44:41.582Z,6.60
2019-02-28T05:45:41.563Z,6.53
2019-02-28T05:46:41.549Z,6.53
2019-02-28T05:47:46.131Z,6.55
2019-02-28T05:48:41.524Z,6.54
2019-02-28T05:49:42.011Z,6.58
2019-02-28T05:50:41.495Z,6.51
2019-02-28T05:51:41.481Z,6.45
2019-02-28T05:52:41.468Z,6.42
2019-02-28T05:53:42.642Z,6.53
2019-02-28T05:54:41.442Z,6.43
2019-02-28T05:55:41.428Z,6.45
2019-02-28T05:56:41.413Z,6.60
2019-02-28T05:57:43.438Z,6.57
2019-02-28T05:58:41.388Z,6.48
2019-02-28T05:59:41.372Z,6.58
2019-02-28T06:00:41.359Z,6.45
2019-02-28T06:01:43.507Z,6.57
2019-02-28T06:02:41.332Z,6.43
2019-02-28T06:03:41.316Z,6.55
2019-02-28T06:04:41.303Z,6.51
2019-02-28T06:05:43.468Z,6.43
2019-02-28T06:06:41.273Z,6.46
2019-02-28T06:07:41.262Z,6.40
2019-02-28T06:08:41.252Z,6.30
2019-02-28T06:09:41.236Z,6.36
2019-02-28T06:10:41.221Z,6.36
2019-02-28T06:11:41.205Z,6.35
2019-02-28T06:12:43.734Z,6.33
2019-02-28T06:13:41.180Z,6.38
2019-02-28T06:14:41.208Z,6.32
2019-02-28T06:15:41.154Z,6.38
2019-02-28T06:16:46.475Z,6.48
2019-02-28T06:17:41.125Z,6.48
2019-02-28T06:18:41.111Z,6.55
2019-02-28T06:19:43.644Z,6.43
2019-02-28T06:20:41.085Z,6.60
2019-02-28T06:21:41.071Z,6.65
2019-02-28T06:22:41.077Z,6.61
2019-02-28T06:23:41.647Z,6.69
2019-02-28T06:24:41.028Z,6.69
2019-02-28T06:25:41.015Z,6.61
2019-02-28T06:26:41.000Z,6.68
2019-02-28T06:27:42.114Z,6.68
2019-02-28T06:28:40.975Z,6.72
2019-02-28T06:29:40.963Z,6.55
2019-02-28T06:30:42.636Z,6.65
2019-02-28T06:31:40.932Z,6.72
2019-02-28T06:32:40.917Z,6.65
2019-02-28T06:33:40.904Z,6.60
2019-02-28T06:34:42.252Z,6.65
2019-02-28T06:35:40.877Z,6.65
2019-02-28T06:36:40.864Z,6.64
2019-02-28T06:37:40.849Z,6.58
2019-02-28T06:38:40.834Z,6.55
2019-02-28T06:39:40.822Z,6.61
2019-02-28T06:40:40.810Z,6.63
2019-02-28T06:41:40.949Z,6.61
2019-02-28T06:42:43.458Z,6.64
2019-02-28T06:43:40.765Z,6.58
2019-02-28T06:44:40.755Z,6.46
2019-02-28T06:45:40.742Z,6.46
2019-02-28T06:46:40.847Z,6.54
2019-02-28T06:47:40.712Z,6.55
2019-02-28T06:48:40.698Z,6.60
2019-02-28T06:49:41.879Z,6.58
2019-02-28T06:50:40.672Z,6.65
2019-02-28T06:51:40.656Z,6.65
2019-02-28T06:52:40.648Z,6.63
2019-02-28T06:53:40.630Z,6.48
2019-02-28T06:54:41.198Z,6.65
2019-02-28T06:55:43.460Z,6.63
2019-02-28T06:56:40.589Z,6.61
2019-02-28T06:57:40.578Z,6.72
2019-02-28T06:58:40.562Z,6.82
2019-02-28T06:59:40.547Z,6.86
2019-02-28T07:00:40.535Z,6.81
2019-02-28T07:01:40.522Z,6.91
2019-02-28T07:02:40.511Z,6.91
2019-02-28T07:03:42.499Z,6.89
2019-02-28T07:04:40.490Z,6.83
2019-02-28T07:05:40.471Z,6.89
2019-02-28T07:06:40.458Z,6.91
2019-02-28T07:07:40.442Z,6.91
2019-02-28T07:08:40.427Z,6.89
2019-02-28T07:09:40.415Z,7.04
2019-02-28T07:10:41.526Z,7.04
2019-02-28T07:11:40.386Z,7.09
2019-02-28T07:12:40.374Z,7.15
2019-02-28T07:13:40.358Z,7.23
2019-02-28T07:14:40.346Z,7.23
2019-02-28T07:15:40.336Z,7.16
2019-02-28T07:16:40.317Z,7.14
2019-02-28T07:17:42.645Z,7.23
2019-02-28T07:18:40.292Z,7.27
2019-02-28T07:19:40.282Z,7.15
2019-02-28T07:20:40.269Z,7.15
2019-02-28T07:21:43.890Z,7.23
2019-02-28T07:22:40.256Z,7.23
2019-02-28T07:23:40.223Z,7.29
2019-02-28T07:24:40.212Z,7.26
2019-02-28T07:25:40.196Z,7.26
2019-02-28T07:26:40.182Z,7.19
2019-02-28T07:27:40.173Z,7.34
2019-02-28T07:28:40.158Z,7.45
2019-02-28T07:29:42.707Z,7.41
2019-02-28T07:30:40.136Z,7.44
2019-02-28T07:31:40.118Z,7.54
2019-02-28T07:32:40.102Z,7.60
2019-02-28T07:33:41.268Z,7.71
2019-02-28T07:34:40.075Z,7.82
2019-02-28T07:35:40.064Z,7.92
2019-02-28T07:36:44.315Z,7.99
2019-02-28T07:37:40.039Z,7.99
2019-02-28T07:38:40.027Z,8.18
2019-02-28T07:39:40.457Z,8.22
2019-02-28T07:40:39.997Z,8.29
2019-02-28T07:41:41.431Z,8.39
2019-02-28T07:42:39.971Z,8.43
2019-02-28T07:43:39.960Z,8.67
2019-02-28T07:44:39.944Z,8.82
2019-02-28T07:45:39.931Z,8.88
2019-02-28T07:46:42.310Z,8.98
2019-02-28T07:47:39.910Z,9.08
2019-02-28T07:48:39.894Z,9.04
2019-02-28T07:49:39.891Z,9.17
2019-02-28T07:50:39.905Z,9.22
2019-02-28T07:51:39.857Z,9.22
2019-02-28T07:52:39.845Z,9.34
2019-02-28T07:53:40.988Z,9.30
2019-02-28T07:54:39.816Z,9.44
2019-02-28T07:55:39.803Z,9.58
2019-02-28T07:56:43.113Z,9.60
2019-02-28T07:57:39.802Z,9.70
2019-02-28T07:58:39.768Z,9.77
2019-02-28T07:59:42.360Z,9.67
2019-02-28T08:00:39.742Z,9.91
2019-02-28T08:01:39.732Z,9.98
2019-02-28T08:02:40.023Z,10.02
2019-02-28T08:03:43.361Z,9.99
2019-02-28T08:04:39.698Z,10.06
2019-02-28T08:05:39.688Z,10.04
2019-02-28T08:06:40.487Z,10.04
2019-02-28T08:07:39.660Z,10.07
2019-02-28T08:08:39.646Z,10.10
2019-02-28T08:09:40.676Z,10.09
2019-02-28T08:10:39.621Z,10.04
2019-02-28T08:11:39.610Z,10.11
2019-02-28T08:12:39.600Z,10.14
2019-02-28T08:13:39.595Z,10.14
2019-02-28T08:14:39.576Z,10.24
2019-02-28T08:15:39.565Z,10.28
2019-02-28T08:16:39.567Z,10.31
2019-02-28T08:17:40.583Z,10.35
2019-02-28T08:18:39.527Z,10.34
2019-02-28T08:19:39.516Z,10.39
2019-02-28T08:20:39.504Z,10.52
2019-02-28T08:21:43.995Z,10.58
2019-02-28T08:22:39.488Z,10.73
2019-02-28T08:23:39.471Z,10.70
2019-02-28T08:24:39.460Z,10.76
2019-02-28T08:25:39.642Z,10.78
2019-02-28T08:26:39.438Z,10.95
2019-02-28T08:27:39.424Z,10.98
2019-02-28T08:28:39.415Z,11.02
2019-02-28T08:29:44.696Z,11.11
2019-02-28T08:30:39.394Z,11.06
2019-02-28T08:31:39.381Z,11.20
2019-02-28T08:32:42.554Z,11.24
2019-02-28T08:33:39.363Z,11.23
2019-02-28T08:34:39.347Z,11.21
2019-02-28T08:35:39.336Z,11.23
2019-02-28T08:36:39.326Z,11.33
2019-02-28T08:37:39.314Z,11.35
2019-02-28T08:38:39.310Z,11.49
2019-02-28T08:39:41.209Z,11.66
2019-02-28T08:40:39.287Z,11.64
2019-02-28T08:41:39.271Z,11.75
2019-02-28T08:42:39.833Z,11.82
2019-02-28T08:43:39.251Z,11.82
2019-02-28T08:44:39.239Z,11.79
2019-02-28T08:45:39.227Z,11.84
2019-02-28T08:46:39.218Z,11.87
2019-02-28T08:47:39.205Z,11.90
2019-02-28T08:48:39.225Z,11.82
2019-02-28T08:49:44.662Z,11.82
2019-02-28T08:50:39.174Z,11.84
2019-02-28T08:51:39.162Z,11.84
2019-02-28T08:52:41.138Z,11.88
2019-02-28T08:53:39.145Z,11.94
2019-02-28T08:54:39.135Z,11.97
2019-02-28T08:55:40.793Z,11.93
2019-02-28T08:56:39.115Z,12.05
2019-02-28T08:57:39.099Z,12.07
2019-02-28T08:58:39.094Z,12.03
2019-02-28T08:59:39.081Z,12.04
2019-02-28T09:00:39.071Z,12.11
2019-02-28T09:01:41.446Z,12.15
2019-02-28T09:02:39.048Z,12.12
2019-02-28T09:03:40.596Z,12.22
2019-02-28T09:04:41.534Z,12.30
2019-02-28T09:05:39.016Z,12.18
2019-02-28T09:06:40.927Z,12.34
2019-02-28T09:07:38.996Z,12.40
2019-02-28T09:08:38.985Z,12.38
2019-02-28T09:09:38.973Z,12.40
2019-02-28T09:10:38.968Z,12.55
2019-02-28T09:11:38.955Z,12.49
2019-02-28T09:12:38.948Z,12.48
2019-02-28T09:13:39.948Z,12.61
2019-02-28T09:14:38.924Z,12.56
2019-02-28T09:15:38.914Z,12.52
2019-02-28T09:16:39.676Z,12.51
2019-02-28T09:17:38.895Z,12.62
2019-02-28T09:18:38.884Z,12.56
2019-02-28T09:19:38.872Z,12.63
2019-02-28T09:20:41.309Z,12.61
2019-02-28T09:21:38.853Z,12.66
2019-02-28T09:22:38.842Z,12.76
2019-02-28T09:23:38.833Z,12.79
2019-02-28T09:24:38.824Z,12.77
2019-02-28T09:25:38.814Z,12.79
2019-02-28T09:26:38.804Z,12.88
2019-02-28T09:27:39.641Z,12.91
2019-02-28T09:28:38.784Z,12.94
2019-02-28T09:29:38.773Z,13.01
2019-02-28T09:30:38.762Z,12.94
2019-02-28T09:31:39.735Z,13.01
2019-02-28T09:32:38.743Z,13.17
2019-02-28T09:33:38.732Z,13.10
2019-02-28T09:34:38.723Z,13.14
2019-02-28T09:35:38.752Z,13.17
2019-02-28T09:36:38.704Z,13.19
2019-02-28T09:37:38.696Z,13.25
2019-02-28T09:38:38.686Z,13.32
2019-02-28T09:39:38.673Z,13.38
2019-02-28T09:40:38.664Z,13.35
2019-02-28T09:41:40.395Z,13.43
2019-02-28T09:42:38.648Z,13.41
2019-02-28T09:43:38.637Z,13.39
2019-02-28T09:44:38.629Z,13.41
2019-02-28T09:45:39.881Z,13.41
2019-02-28T09:46:38.609Z,13.39
2019-02-28T09:47:38.599Z,13.43
2019-02-28T09:48:38.587Z,13.47
2019-02-28T09:49:38.580Z,13.62
2019-02-28T09:50:38.570Z,13.65
2019-02-28T09:51:38.561Z,13.65
2019-02-28T09:52:41.633Z,13.62
2019-02-28T09:53:38.542Z,13.83
2019-02-28T09:54:38.534Z,13.91
2019-02-28T09:55:39.852Z,13.91
2019-02-28T09:56:41.150Z,14.12
2019-02-28T09:57:38.504Z,14.16
2019-02-28T09:58:38.494Z,14.16
2019-02-28T09:59:38.704Z,14.26
2019-02-28T10:00:38.478Z,14.36
2019-02-28T10:01:38.472Z,14.26
2019-02-28T10:02:40.400Z,14.31
2019-02-28T10:03:38.450Z,14.39
2019-02-28T10:04:38.442Z,14.44
2019-02-28T10:05:38.859Z,14.48
2019-02-28T10:06:38.423Z,14.57
2019-02-28T10:07:38.416Z,14.59
2019-02-28T10:08:38.406Z,14.63
2019-02-28T10:09:40.587Z,14.72
2019-02-28T10:10:38.395Z,14.72
2019-02-28T10:11:40.423Z,14.80
2019-02-28T10:12:39.434Z,14.97
2019-02-28T10:13:38.364Z,14.91
2019-02-28T10:14:38.358Z,14.91
2019-02-28T10:15:38.652Z,14.75
2019-02-28T10:16:38.336Z,14.91
2019-02-28T10:17:38.333Z,14.90
2019-02-28T10:18:38.907Z,14.94
2019-02-28T10:19:45.583Z,15.01
2019-02-28T10:20:38.305Z,15.09
2019-02-28T10:21:39.646Z,15.15
2019-02-28T10:22:38.286Z,15.27
2019-02-28T10:23:38.278Z,15.22
2019-02-28T10:24:38.269Z,15.34
2019-02-28T10:25:43.280Z,15.35
2019-02-28T10:26:38.254Z,15.41
2019-02-28T10:27:38.246Z,15.49
2019-02-28T10:28:38.238Z,15.60
2019-02-28T10:29:38.452Z,15.64
2019-02-28T10:30:38.222Z,15.66
2019-02-28T10:31:38.640Z,15.74
2019-02-28T10:32:40.435Z,15.78
2019-02-28T10:33:38.199Z,15.81
2019-02-28T10:34:38.190Z,15.86
2019-02-28T10:35:38.180Z,15.84
2019-02-28T10:36:38.176Z,15.88
2019-02-28T10:37:38.167Z,15.96
2019-02-28T10:38:38.156Z,15.96
2019-02-28T10:39:40.261Z,16.08
2019-02-28T10:40:38.144Z,15.99
2019-02-28T10:41:38.135Z,16.06
2019-02-28T10:42:40.292Z,16.16
2019-02-28T10:43:38.121Z,16.14
2019-02-28T10:44:38.114Z,16.23
2019-02-28T10:45:40.906Z,16.17
2019-02-28T10:46:38.097Z,16.23
2019-02-28T10:47:38.091Z,16.29
2019-02-28T10:48:50.248Z,16.16
2019-02-28T10:49:38.076Z,16.01
2019-02-28T10:50:38.069Z,16.11
2019-02-28T10:51:38.061Z,16.16
2019-02-28T10:52:38.055Z,16.08
2019-02-28T10:53:39.347Z,16.14
2019-02-28T10:54:38.039Z,16.29
2019-02-28T10:55:38.061Z,16.26
2019-02-28T10:56:39.106Z,16.41
2019-02-28T10:57:40.575Z,16.44
2019-02-28T10:58:38.009Z,16.51
2019-02-28T10:59:38.001Z,16.55
2019-02-28T11:00:37.993Z,16.54
2019-02-28T11:01:41.555Z,16.70
2019-02-28T11:02:37.978Z,16.60
2019-02-28T11:03:37.975Z,16.63
2019-02-28T11:04:42.839Z,16.85
2019-02-28T11:05:37.957Z,16.90
2019-02-28T11:06:37.952Z,16.87
2019-02-28T11:07:38.659Z,16.78
2019-02-28T11:08:37.941Z,16.69
2019-02-28T11:09:37.932Z,16.82
2019-02-28T11:10:37.924Z,16.95
2019-02-28T11:11:37.917Z,16.92
2019-02-28T11:12:37.910Z,16.95
2019-02-28T11:13:37.904Z,16.95
2019-02-28T11:14:38.701Z,16.96
2019-02-28T11:15:37.898Z,17.05
2019-02-28T11:16:37.882Z,17.06
2019-02-28T11:17:37.875Z,17.17
2019-02-28T11:18:37.867Z,17.24
2019-02-28T11:19:37.859Z,17.27
2019-02-28T11:20:37.857Z,17.32
2019-02-28T11:21:37.848Z,17.33
2019-02-28T11:22:39.961Z,17.28
2019-02-28T11:23:37.832Z,17.43
2019-02-28T11:24:37.828Z,17.32
2019-02-28T11:25:37.820Z,17.45
2019-02-28T11:26:37.812Z,17.36
2019-02-28T11:27:37.817Z,17.49
2019-02-28T11:28:37.803Z,17.57
2019-02-28T11:29:37.795Z,17.54
2019-02-28T11:30:37.788Z,17.54
2019-02-28T11:31:37.780Z,17.53
2019-02-28T11:32:37.775Z,17.57
2019-02-28T11:33:39.520Z,17.57
2019-02-28T11:34:37.763Z,17.54
2019-02-28T11:35:37.755Z,17.62
2019-02-28T11:36:37.748Z,17.66
2019-02-28T11:37:37.743Z,17.74
2019-02-28T11:38:37.746Z,17.79
2019-02-28T11:39:37.729Z,17.71
2019-02-28T11:40:40.412Z,17.74
2019-02-28T11:41:37.718Z,17.74
2019-02-28T11:42:37.712Z,17.79
2019-02-28T11:43:38.594Z,17.83
2019-02-28T11:44:37.698Z,17.87
2019-02-28T11:45:37.699Z,17.92
2019-02-28T11:46:37.689Z,17.94
2019-02-28T11:47:37.680Z,18.07
2019-02-28T11:48:37.686Z,18.04
2019-02-28T11:49:37.683Z,18.14
2019-02-28T11:50:41.173Z,18.16
2019-02-28T11:51:37.654Z,18.14
2019-02-28T11:52:37.650Z,18.19
2019-02-28T11:53:40.298Z,18.19
2019-02-28T11:54:37.638Z,18.21
2019-02-28T11:55:37.631Z,18.20
2019-02-28T11:56:37.626Z,18.21
2019-02-28T11:57:41.158Z,18.21
2019-02-28T11:58:37.615Z,18.32
2019-02-28T11:59:37.612Z,18.31
2019-02-28T12:00:37.610Z,18.35
2019-02-28T12:01:37.597Z,18.35
2019-02-28T12:02:37.589Z,18.36
2019-02-28T12:03:37.583Z,18.50
2019-02-28T12:04:40.477Z,18.41
2019-02-28T12:05:37.574Z,18.44
2019-02-28T12:06:37.567Z,18.53
2019-02-28T12:07:37.562Z,18.41
2019-02-28T12:08:37.556Z,18.46
2019-02-28T12:09:37.551Z,18.56
2019-02-28T12:10:37.542Z,18.59
2019-02-28T12:11:37.539Z,18.57
2019-02-28T12:12:37.531Z,18.68
2019-02-28T12:13:37.526Z,18.56
2019-02-28T12:14:37.520Z,18.56
2019-02-28T12:15:38.988Z,18.59
2019-02-28T12:16:37.509Z,18.68
2019-02-28T12:17:37.506Z,18.74
2019-02-28T12:18:40.011Z,18.79
2019-02-28T12:19:37.497Z,18.79
2019-02-28T12:20:37.491Z,18.82
2019-02-28T12:21:38.076Z,18.89
2019-02-28T12:22:37.479Z,18.86
2019-02-28T12:23:37.471Z,18.97
2019-02-28T12:24:37.468Z,19.01
2019-02-28T12:25:39.501Z,19.07
2019-02-28T12:26:37.453Z,18.97
2019-02-28T12:27:37.449Z,19.02
2019-02-28T12:28:38.265Z,19.02
2019-02-28T12:29:37.440Z,18.99
2019-02-28T12:30:37.432Z,18.97
2019-02-28T12:31:37.426Z,19.06
2019-02-28T12:32:40.305Z,18.97
2019-02-28T12:33:37.417Z,19.07
2019-02-28T12:34:37.409Z,19.01
2019-02-28T12:35:40.323Z,19.05
2019-02-28T12:36:37.398Z,18.96
2019-02-28T12:37:37.396Z,18.94
2019-02-28T12:38:37.387Z,19.05
2019-02-28T12:39:37.382Z,18.99
2019-02-28T12:40:37.377Z,18.99
2019-02-28T12:41:37.371Z,19.02
2019-02-28T12:42:37.367Z,18.86
2019-02-28T12:43:40.560Z,19.02
2019-02-28T12:44:37.356Z,19.10
2019-02-28T12:45:37.350Z,19.05
2019-02-28T12:46:37.344Z,19.07
2019-02-28T12:47:38.675Z,19.17
2019-02-28T12:48:37.339Z,19.20
2019-02-28T12:49:37.330Z,19.06
2019-02-28T12:50:37.332Z,19.20
2019-02-28T12:51:39.714Z,19.21
2019-02-28T12:52:37.313Z,19.24
2019-02-28T12:53:37.308Z,19.35
2019-02-28T12:54:37.301Z,19.31
2019-02-28T12:55:38.918Z,19.39
2019-02-28T12:56:37.294Z,19.35
2019-02-28T12:57:37.285Z,19.38
2019-02-28T12:58:39.196Z,19.43
2019-02-28T12:59:37.277Z,19.39
2019-02-28T13:00:37.277Z,19.45
2019-02-28T13:01:37.274Z,19.39
2019-02-28T13:02:39.740Z,19.39
2019-02-28T13:03:37.254Z,19.40
2019-02-28T13:04:37.251Z,19.35
2019-02-28T13:05:37.244Z,19.42
2019-02-28T13:06:37.238Z,19.43
2019-02-28T13:07:37.234Z,19.49
2019-02-28T13:08:38.622Z,19.42
2019-02-28T13:09:37.224Z,19.47